WICT2: Wichita River At Wichita Falls, TX

Data processed at Mon Sep 24 2018 23:32


All information presented herein is the property of the government of the United States of America and may be revised or deleted at any time without prior notice.
Dissemination of this information without the expressed written consent of the Public Affairs Office, Tulsa District U.S. Army Corps of Engineers is strictly prohibited.
These data are gathered electronically and, as presented, have not undergone any form of quality control. These data are not guaranteed to be valid or correct.
Go to home page.
Go to station list.
Go to home page.

Upstream stations:

Downstream station:
Previous Day
Next Day
Current Day
    
SHEF ID:       WICT2     Wichita Rv at Wichita Falls, TX
STATION TYPE:  

               PRECIP     STAGE  RIV-FLOW  WTR-TEMP   CONDUCT  BAT-LOAD
                   in        ft       cfs         F   umho/cm      volt
              Ccp-Rev   Ccp-Rev   Ccp-Rev   Ccp-Rev   Ccp-Rev   Ccp-Rev
(US/Central)
09/24 00:00      0.00      9.37      1605     70.39       416     12.41
09/24 01:00      0.00      9.41      1617     70.34       408     12.41
09/24 02:00      0.00      9.44      1625     70.29       405     12.41
09/24 03:00      0.00      9.49      1640     70.20       411     12.41
09/24 04:00      0.00      9.51      1646     70.12       402     12.41
09/24 05:00      0.00      9.55      1658     70.07       401     12.41
09/24 06:00      0.00      9.57      1664     70.02       401     12.41
09/24 07:00      0.00      9.59      1670     69.98       411     12.41
09/24 08:00      0.00      9.60      1673     69.94       415     12.41
09/24 09:00      0.00      9.60      1673     69.93       416     12.41
09/24 10:00      0.00      9.62      1679     69.91       417     12.49
09/24 11:00      0.00      9.62      1679     69.93       419     12.65
09/24 12:00      0.00      9.63      1682     70.02       422     12.97
09/24 13:00      0.00      9.63      1682     70.05       423     12.97
09/24 14:00      0.00      9.63      1682     70.16       424     12.97
09/24 15:00      0.00      9.64      1685     70.39       430     13.29
09/24 16:00      0.00      9.62      1679     70.63       434     12.97
09/24 17:00      0.00      9.60      1673     70.72       443     12.89
09/24 18:00      0.00      9.56      1661     70.79       453     12.89
09/24 19:00      0.00      9.54      1655     70.81       461     12.73
09/24 20:00      0.00      9.50      1643     70.83       470     12.65
09/24 21:00      0.00      9.44      1625     70.83       481     12.65
09/24 22:00      0.00      9.36      1602     70.83       492     12.57
09/24 23:00      ----      ----      ----      ----      ----      ----